»·PEaware :: N333ZA KRNT-KFHR

N333ZA :: KRNT-KFHR

FLIGHT INFORMATION

Flight Status: Arrived
Operator: Privately registered:
United States
More flights under this callsign
Pilot: Judd H. (29974)
Aircraft: CESSNA 210 CENTURION
(C210)
More flights by this aircraft type
Origin: KRNT Renton Mun
United States
Destination: KFHR Friday Harbor
United States
More flights between these airports :: More routes between these airports
Route: PAE CVV
File this flight plan on PilotEdge
Remarks:
Altitude:
(Current/Filed)
10,000ft
Speed:
(Current/Filed)
150kts
Departed: 07-Nov-20 07:21 PM
Arrived: 07-Nov-20 07:54 PM
Distance/Time
Traveled:
70nm/0:33
Distance/Time
To Go:
Arrived

Flight Plot

Page will automatically refresh every two minutes.

Flight plan parsing failed; only flown route is shown


Map Options




Map Legend


Flown Route
Filed Route
Departure Airport
Arrival Airport
Navaid (VOR, NDB)
Fix

Horizontal Profiles

Position Reports

Time Latitude Longitude Heading Altitude Ground
Speed
07-Nov-20 18:56 47.492345 -122.213584 2 26ft 0kts
07-Nov-20 18:57 47.492345 -122.213584 2 26ft 0kts
07-Nov-20 18:58 47.492345 -122.213584 2 26ft 0kts
07-Nov-20 18:59 47.492345 -122.213584 2 26ft 0kts
07-Nov-20 19:00 47.492345 -122.213584 2 26ft 0kts
07-Nov-20 19:01 47.492345 -122.213584 2 26ft 0kts
07-Nov-20 19:02 47.492345 -122.213584 2 26ft 0kts
07-Nov-20 19:03 47.492345 -122.213584 2 26ft 0kts
07-Nov-20 19:04 47.492345 -122.213584 2 26ft 0kts
07-Nov-20 19:05 47.492345 -122.213584 2 26ft 0kts
07-Nov-20 19:06 47.492345 -122.213584 2 26ft 0kts
07-Nov-20 19:07 47.492345 -122.213584 2 26ft 0kts
07-Nov-20 19:08 47.492345 -122.213584 2 26ft 0kts
07-Nov-20 19:09 47.492345 -122.213584 2 26ft 0kts
07-Nov-20 19:10 47.492345 -122.213584 2 26ft 0kts
07-Nov-20 19:10 47.492345 -122.213584 2 26ft 0kts
07-Nov-20 19:11 47.492345 -122.213584 2 26ft 0kts
07-Nov-20 19:12 47.492345 -122.213584 2 26ft 0kts
07-Nov-20 19:13 47.492348 -122.213583 2 26ft 0kts
07-Nov-20 19:14 47.492348 -122.213583 2 26ft 0kts
07-Nov-20 19:15 47.492348 -122.213583 2 26ft 0kts
07-Nov-20 19:16 47.493059 -122.214474 338 26ft 10kts
07-Nov-20 19:17 47.490132 -122.216552 176 26ft 25kts
07-Nov-20 19:18 47.486144 -122.215873 143 26ft 4kts
07-Nov-20 19:19 47.486540 -122.214815 354 26ft 13kts
07-Nov-20 19:20 47.509618 -122.218213 357 740ft 116kts
07-Nov-20 19:21 47.545363 -122.221300 350 1830ft 138kts
07-Nov-20 19:22 47.583349 -122.228098 357 3055ft 135kts
07-Nov-20 19:23 47.618685 -122.233881 351 4343ft 126kts
07-Nov-20 19:24 47.652908 -122.240383 353 5651ft 121kts
07-Nov-20 19:25 47.686670 -122.247036 352 6860ft 123kts
07-Nov-20 19:26 47.720653 -122.250509 351 8070ft 121kts
07-Nov-20 19:27 47.754540 -122.253873 351 9204ft 122kts
07-Nov-20 19:28 47.790211 -122.258850 350 9981ft 146kts
07-Nov-20 19:29 47.834713 -122.263555 350 10001ft 167kts
07-Nov-20 19:30 47.880660 -122.273065 351 10004ft 165kts
07-Nov-20 19:31 47.925013 -122.284648 328 10010ft 160kts
07-Nov-20 19:32 47.959156 -122.328753 318 10000ft 162kts
07-Nov-20 19:33 47.991363 -122.376656 316 10000ft 163kts
07-Nov-20 19:34 48.025273 -122.422644 316 10008ft 167kts
07-Nov-20 19:35 48.061769 -122.467250 313 10024ft 172kts
07-Nov-20 19:36 48.098149 -122.516358 310 10045ft 176kts
07-Nov-20 19:37 48.133787 -122.567406 310 10046ft 177kts
07-Nov-20 19:38 48.169629 -122.618725 310 10046ft 177kts
07-Nov-20 19:39 48.206307 -122.666003 315 10044ft 171kts
07-Nov-20 19:40 48.241016 -122.713921 307 10042ft 168kts
07-Nov-20 19:41 48.255870 -122.774691 283 9224ft 139kts
07-Nov-20 19:42 48.267670 -122.827249 286 8130ft 135kts
07-Nov-20 19:43 48.279567 -122.878104 283 7050ft 122kts
07-Nov-20 19:44 48.289071 -122.925444 287 6303ft 123kts
07-Nov-20 19:45 48.302258 -122.975180 290 5480ft 130kts
07-Nov-20 19:46 48.328991 -123.009679 335 4528ft 142kts
07-Nov-20 19:47 48.371390 -123.011635 354 3091ft 152kts
07-Nov-20 19:48 48.406969 -123.016007 353 2353ft 122kts
07-Nov-20 19:49 48.441310 -123.017814 358 1719ft 123kts
07-Nov-20 19:50 48.475304 -123.021086 358 1046ft 100kts
07-Nov-20 19:51 48.501684 -123.022841 357 478ft 96kts
07-Nov-20 19:52 48.523260 -123.024466 358 109ft 46kts
07-Nov-20 19:53 48.525962 -123.026195 219 108ft 8kts
07-Nov-20 19:54 48.525840 -123.027125 64 108ft 0kts
07-Nov-20 19:55 48.525840 -123.027125 64 108ft 0kts
07-Nov-20 19:56 48.525840 -123.027125 64 108ft 0kts

Navigation Log

Ident Type
Flight plan parsing failed, navigation log unavailable